sensor_id;sensor_type;location;lat;lon;timestamp;temperature;humidity
52435;DHT22;38354;52.892;6.148;2023-06-22T03:01:50;16.30;99.90
52435;DHT22;38354;52.892;6.148;2023-06-22T03:04:16;16.30;99.90
52435;DHT22;38354;52.892;6.148;2023-06-22T03:06:41;16.30;99.90
52435;DHT22;38354;52.892;6.148;2023-06-22T03:09:07;16.30;99.90
52435;DHT22;38354;52.892;6.148;2023-06-22T03:11:33;16.20;99.90
52435;DHT22;38354;52.892;6.148;2023-06-22T03:13:59;16.10;99.90
52435;DHT22;38354;52.892;6.148;2023-06-22T03:16:25;16.10;99.90
52435;DHT22;38354;52.892;6.148;2023-06-22T03:18:51;16.10;99.90
52435;DHT22;38354;52.892;6.148;2023-06-22T03:21:16;16.10;99.90
52435;DHT22;38354;52.892;6.148;2023-06-22T03:23:42;16.10;99.90
52435;DHT22;38354;52.892;6.148;2023-06-22T03:26:08;16.10;99.90
52435;DHT22;38354;52.892;6.148;2023-06-22T03:28:34;16.10;99.90
52435;DHT22;38354;52.892;6.148;2023-06-22T03:30:59;16.10;99.90
52435;DHT22;38354;52.892;6.148;2023-06-22T03:33:25;16.10;99.90
52435;DHT22;38354;52.892;6.148;2023-06-22T03:35:51;16.10;99.90
52435;DHT22;38354;52.892;6.148;2023-06-22T03:38:16;16.10;99.90
52435;DHT22;38354;52.892;6.148;2023-06-22T03:40:42;16.10;99.90
52435;DHT22;38354;52.892;6.148;2023-06-22T03:43:08;16.10;99.90
52435;DHT22;38354;52.892;6.148;2023-06-22T03:45:33;16.10;99.90
52435;DHT22;38354;52.892;6.148;2023-06-22T03:47:59;16.10;99.90
52435;DHT22;38354;52.892;6.148;2023-06-22T03:50:25;16.10;99.90
52435;DHT22;38354;52.892;6.148;2023-06-22T03:52:50;16.10;99.90
52435;DHT22;38354;52.892;6.148;2023-06-22T03:55:19;16.10;99.90
52435;DHT22;38354;52.892;6.148;2023-06-22T03:57:45;16.20;99.90
52435;DHT22;38354;52.892;6.148;2023-06-22T04:00:10;16.10;99.90
52435;DHT22;38354;52.892;6.148;2023-06-22T04:02:36;16.20;99.90
52435;DHT22;38354;52.892;6.148;2023-06-22T04:05:02;16.20;99.90
52435;DHT22;38354;52.892;6.148;2023-06-22T04:07:27;16.10;99.90
52435;DHT22;38354;52.892;6.148;2023-06-22T04:09:53;16.10;99.90
52435;DHT22;38354;52.892;6.148;2023-06-22T04:12:18;16.10;99.90
52435;DHT22;38354;52.892;6.148;2023-06-22T04:14:44;16.20;99.90
52435;DHT22;38354;52.892;6.148;2023-06-22T04:17:09;16.20;99.90
52435;DHT22;38354;52.892;6.148;2023-06-22T04:19:35;16.20;99.90
52435;DHT22;38354;52.892;6.148;2023-06-22T04:22:00;16.20;99.90
52435;DHT22;38354;52.892;6.148;2023-06-22T04:24:26;16.20;99.90
52435;DHT22;38354;52.892;6.148;2023-06-22T04:26:51;16.20;99.90
52435;DHT22;38354;52.892;6.148;2023-06-22T04:29:20;16.20;99.90
52435;DHT22;38354;52.892;6.148;2023-06-22T04:31:45;16.20;99.90
52435;DHT22;38354;52.892;6.148;2023-06-22T04:34:16;16.20;99.90
52435;DHT22;38354;52.892;6.148;2023-06-22T04:36:42;16.20;99.90
52435;DHT22;38354;52.892;6.148;2023-06-22T04:39:08;16.20;99.90
52435;DHT22;38354;52.892;6.148;2023-06-22T04:41:35;16.20;99.90
52435;DHT22;38354;52.892;6.148;2023-06-22T04:44:08;16.20;99.90
52435;DHT22;38354;52.892;6.148;2023-06-22T04:46:33;16.20;99.90
52435;DHT22;38354;52.892;6.148;2023-06-22T04:49:04;16.20;99.90
52435;DHT22;38354;52.892;6.148;2023-06-22T04:51:32;16.20;99.90
52435;DHT22;38354;52.892;6.148;2023-06-22T04:54:00;16.30;99.90
52435;DHT22;38354;52.892;6.148;2023-06-22T04:56:26;16.20;99.90
52435;DHT22;38354;52.892;6.148;2023-06-22T04:58:53;16.30;99.90
52435;DHT22;38354;52.892;6.148;2023-06-22T05:01:25;16.30;99.90
52435;DHT22;38354;52.892;6.148;2023-06-22T05:03:50;16.30;99.90
52435;DHT22;38354;52.892;6.148;2023-06-22T05:06:21;16.30;99.90
52435;DHT22;38354;52.892;6.148;2023-06-22T05:08:47;16.40;99.90
52435;DHT22;38354;52.892;6.148;2023-06-22T05:11:12;16.40;99.90
52435;DHT22;38354;52.892;6.148;2023-06-22T05:13:38;16.40;99.90
52435;DHT22;38354;52.892;6.148;2023-06-22T05:16:03;16.50;99.90
52435;DHT22;38354;52.892;6.148;2023-06-22T05:18:29;16.50;99.90
52435;DHT22;38354;52.892;6.148;2023-06-22T05:20:55;16.50;99.90
52435;DHT22;38354;52.892;6.148;2023-06-22T05:23:20;16.60;99.90
52435;DHT22;38354;52.892;6.148;2023-06-22T05:25:46;16.60;99.90
52435;DHT22;38354;52.892;6.148;2023-06-22T05:28:11;16.60;99.90
52435;DHT22;38354;52.892;6.148;2023-06-22T05:30:37;16.70;99.90
52435;DHT22;38354;52.892;6.148;2023-06-22T05:33:03;16.70;99.90
52435;DHT22;38354;52.892;6.148;2023-06-22T05:35:29;16.80;99.90
52435;DHT22;38354;52.892;6.148;2023-06-22T05:37:55;16.80;99.90
52435;DHT22;38354;52.892;6.148;2023-06-22T05:40:21;16.90;99.90
52435;DHT22;38354;52.892;6.148;2023-06-22T05:42:47;16.90;99.90
52435;DHT22;38354;52.892;6.148;2023-06-22T05:45:12;17.00;99.90
52435;DHT22;38354;52.892;6.148;2023-06-22T05:47:38;17.00;99.90
52435;DHT22;38354;52.892;6.148;2023-06-22T05:50:04;17.10;99.90
52435;DHT22;38354;52.892;6.148;2023-06-22T05:52:32;17.10;99.90
52435;DHT22;38354;52.892;6.148;2023-06-22T05:54:57;17.20;99.90
52435;DHT22;38354;52.892;6.148;2023-06-22T05:57:23;17.30;99.90
52435;DHT22;38354;52.892;6.148;2023-06-22T05:59:49;17.30;99.90
52435;DHT22;38354;52.892;6.148;2023-06-22T06:02:14;17.40;99.90
52435;DHT22;38354;52.892;6.148;2023-06-22T06:04:40;17.50;99.90
52435;DHT22;38354;52.892;6.148;2023-06-22T06:07:06;17.60;99.90
52435;DHT22;38354;52.892;6.148;2023-06-22T06:09:32;17.60;99.90
52435;DHT22;38354;52.892;6.148;2023-06-22T06:11:57;17.70;99.90
52435;DHT22;38354;52.892;6.148;2023-06-22T06:14:23;17.80;99.90
52435;DHT22;38354;52.892;6.148;2023-06-22T06:16:49;17.80;99.90
52435;DHT22;38354;52.892;6.148;2023-06-22T06:19:14;17.90;99.90
52435;DHT22;38354;52.892;6.148;2023-06-22T06:21:40;18.00;99.90
52435;DHT22;38354;52.892;6.148;2023-06-22T06:24:06;18.10;99.90
52435;DHT22;38354;52.892;6.148;2023-06-22T06:26:31;18.20;99.90
52435;DHT22;38354;52.892;6.148;2023-06-22T06:28:59;18.20;99.90
52435;DHT22;38354;52.892;6.148;2023-06-22T06:31:25;18.30;99.90
52435;DHT22;38354;52.892;6.148;2023-06-22T06:33:52;18.40;99.90
52435;DHT22;38354;52.892;6.148;2023-06-22T06:36:19;18.50;99.90
52435;DHT22;38354;52.892;6.148;2023-06-22T06:38:45;18.60;99.90
52435;DHT22;38354;52.892;6.148;2023-06-22T06:41:13;18.70;99.90
52435;DHT22;38354;52.892;6.148;2023-06-22T06:43:38;18.70;99.90
52435;DHT22;38354;52.892;6.148;2023-06-22T06:46:04;18.80;99.90
52435;DHT22;38354;52.892;6.148;2023-06-22T06:48:30;18.90;99.90
52435;DHT22;38354;52.892;6.148;2023-06-22T06:50:55;19.00;99.90
52435;DHT22;38354;52.892;6.148;2023-06-22T06:53:21;19.00;99.90
52435;DHT22;38354;52.892;6.148;2023-06-22T06:55:47;19.10;99.90
52435;DHT22;38354;52.892;6.148;2023-06-22T06:58:12;19.20;99.90
52435;DHT22;38354;52.892;6.148;2023-06-22T07:00:38;19.20;99.90
52435;DHT22;38354;52.892;6.148;2023-06-22T07:03:04;19.30;99.90
52435;DHT22;38354;52.892;6.148;2023-06-22T07:05:29;19.30;99.90
52435;DHT22;38354;52.892;6.148;2023-06-22T07:07:55;19.40;99.90
52435;DHT22;38354;52.892;6.148;2023-06-22T07:10:21;19.50;99.90
52435;DHT22;38354;52.892;6.148;2023-06-22T07:12:46;19.50;99.90
52435;DHT22;38354;52.892;6.148;2023-06-22T07:15:12;19.60;99.90
52435;DHT22;38354;52.892;6.148;2023-06-22T07:17:38;19.60;99.90
52435;DHT22;38354;52.892;6.148;2023-06-22T07:20:06;19.70;99.90
52435;DHT22;38354;52.892;6.148;2023-06-22T07:22:35;19.70;99.90
52435;DHT22;38354;52.892;6.148;2023-06-22T07:25:01;19.80;99.90
52435;DHT22;38354;52.892;6.148;2023-06-22T07:27:29;19.80;99.90
52435;DHT22;38354;52.892;6.148;2023-06-22T07:30:00;19.90;99.90
52435;DHT22;38354;52.892;6.148;2023-06-22T07:32:25;19.90;99.90
52435;DHT22;38354;52.892;6.148;2023-06-22T07:34:51;20.00;99.90
52435;DHT22;38354;52.892;6.148;2023-06-22T07:37:17;20.10;99.90
52435;DHT22;38354;52.892;6.148;2023-06-22T07:39:42;20.10;99.90
52435;DHT22;38354;52.892;6.148;2023-06-22T07:42:08;20.20;99.90
52435;DHT22;38354;52.892;6.148;2023-06-22T07:44:34;20.30;99.90
52435;DHT22;38354;52.892;6.148;2023-06-22T07:47:00;20.40;99.90
52435;DHT22;38354;52.892;6.148;2023-06-22T07:49:25;20.50;99.90
52435;DHT22;38354;52.892;6.148;2023-06-22T07:51:51;20.50;99.90
52435;DHT22;38354;52.892;6.148;2023-06-22T07:54:16;20.60;99.90
52435;DHT22;38354;52.892;6.148;2023-06-22T07:56:42;20.70;99.90
52435;DHT22;38354;52.892;6.148;2023-06-22T07:59:08;20.80;99.90
52435;DHT22;38354;52.892;6.148;2023-06-22T08:01:34;20.90;99.90
52435;DHT22;38354;52.892;6.148;2023-06-22T08:03:59;20.90;99.90
52435;DHT22;38354;52.892;6.148;2023-06-22T08:06:25;21.00;99.90
52435;DHT22;38354;52.892;6.148;2023-06-22T08:08:50;21.10;99.90
52435;DHT22;38354;52.892;6.148;2023-06-22T08:11:18;21.20;99.90
52435;DHT22;38354;52.892;6.148;2023-06-22T08:13:43;21.20;99.90
52435;DHT22;38354;52.892;6.148;2023-06-22T08:16:09;21.30;99.90
52435;DHT22;38354;52.892;6.148;2023-06-22T08:18:34;21.40;99.90
52435;DHT22;38354;52.892;6.148;2023-06-22T08:21:00;21.40;99.90
52435;DHT22;38354;52.892;6.148;2023-06-22T08:23:25;21.50;99.90
52435;DHT22;38354;52.892;6.148;2023-06-22T08:25:51;21.60;99.90
52435;DHT22;38354;52.892;6.148;2023-06-22T08:28:16;21.70;99.90
52435;DHT22;38354;52.892;6.148;2023-06-22T08:30:42;21.70;99.90
52435;DHT22;38354;52.892;6.148;2023-06-22T08:33:08;21.90;99.90
52435;DHT22;38354;52.892;6.148;2023-06-22T08:35:33;22.00;99.90
52435;DHT22;38354;52.892;6.148;2023-06-22T08:37:59;22.10;99.90
52435;DHT22;38354;52.892;6.148;2023-06-22T08:40:25;22.20;99.90
52435;DHT22;38354;52.892;6.148;2023-06-22T08:42:50;22.30;99.90
52435;DHT22;38354;52.892;6.148;2023-06-22T08:45:16;22.50;99.90
52435;DHT22;38354;52.892;6.148;2023-06-22T08:47:42;22.50;99.90
52435;DHT22;38354;52.892;6.148;2023-06-22T08:50:08;22.60;99.90
52435;DHT22;38354;52.892;6.148;2023-06-22T08:52:34;22.70;99.90
52435;DHT22;38354;52.892;6.148;2023-06-22T08:55:00;22.80;99.90
52435;DHT22;38354;52.892;6.148;2023-06-22T08:57:26;22.90;99.90
52435;DHT22;38354;52.892;6.148;2023-06-22T08:59:51;23.00;99.90
52435;DHT22;38354;52.892;6.148;2023-06-22T09:02:24;23.10;99.90
52435;DHT22;38354;52.892;6.148;2023-06-22T09:04:49;23.30;99.90
52435;DHT22;38354;52.892;6.148;2023-06-22T09:07:21;23.40;99.90
52435;DHT22;38354;52.892;6.148;2023-06-22T09:09:48;23.40;99.90
52435;DHT22;38354;52.892;6.148;2023-06-22T09:12:14;23.50;99.90
52435;DHT22;38354;52.892;6.148;2023-06-22T09:14:39;23.60;99.90
52435;DHT22;38354;52.892;6.148;2023-06-22T09:17:05;23.70;99.90
52435;DHT22;38354;52.892;6.148;2023-06-22T09:19:30;23.90;99.90
52435;DHT22;38354;52.892;6.148;2023-06-22T09:21:56;24.00;99.90
52435;DHT22;38354;52.892;6.148;2023-06-22T09:24:22;24.20;99.90
52435;DHT22;38354;52.892;6.148;2023-06-22T09:26:48;24.30;99.90
52435;DHT22;38354;52.892;6.148;2023-06-22T09:29:13;24.40;99.90
52435;DHT22;38354;52.892;6.148;2023-06-22T09:31:39;24.50;99.90
52435;DHT22;38354;52.892;6.148;2023-06-22T09:34:04;24.60;99.90
52435;DHT22;38354;52.892;6.148;2023-06-22T09:36:30;24.70;99.90
52435;DHT22;38354;52.892;6.148;2023-06-22T09:38:55;24.70;99.90
52435;DHT22;38354;52.892;6.148;2023-06-22T09:41:24;24.60;99.90
52435;DHT22;38354;52.892;6.148;2023-06-22T09:43:49;24.70;99.90
52435;DHT22;38354;52.892;6.148;2023-06-22T09:46:15;24.80;99.90
52435;DHT22;38354;52.892;6.148;2023-06-22T09:48:41;24.80;99.90
52435;DHT22;38354;52.892;6.148;2023-06-22T09:51:06;24.90;99.90
52435;DHT22;38354;52.892;6.148;2023-06-22T09:53:32;25.00;99.90
52435;DHT22;38354;52.892;6.148;2023-06-22T09:55:57;25.10;99.90
52435;DHT22;38354;52.892;6.148;2023-06-22T09:58:23;25.30;99.90
52435;DHT22;38354;52.892;6.148;2023-06-22T10:00:48;25.50;99.90
52435;DHT22;38354;52.892;6.148;2023-06-22T10:03:14;25.50;99.90
52435;DHT22;38354;52.892;6.148;2023-06-22T10:05:39;25.60;99.90
52435;DHT22;38354;52.892;6.148;2023-06-22T10:08:06;25.60;99.90
52435;DHT22;38354;52.892;6.148;2023-06-22T10:10:33;25.60;99.90
52435;DHT22;38354;52.892;6.148;2023-06-22T10:13:02;25.60;99.90
52435;DHT22;38354;52.892;6.148;2023-06-22T10:15:28;25.70;99.90
52435;DHT22;38354;52.892;6.148;2023-06-22T10:17:53;25.70;99.90
52435;DHT22;38354;52.892;6.148;2023-06-22T10:20:19;25.80;99.90
52435;DHT22;38354;52.892;6.148;2023-06-22T10:22:46;25.80;99.90
52435;DHT22;38354;52.892;6.148;2023-06-22T10:25:12;26.00;99.90
52435;DHT22;38354;52.892;6.148;2023-06-22T10:27:38;26.20;99.90
52435;DHT22;38354;52.892;6.148;2023-06-22T10:30:05;26.30;99.90
52435;DHT22;38354;52.892;6.148;2023-06-22T10:32:31;26.30;99.90
52435;DHT22;38354;52.892;6.148;2023-06-22T10:34:57;26.30;99.90
52435;DHT22;38354;52.892;6.148;2023-06-22T10:37:22;26.40;99.90
52435;DHT22;38354;52.892;6.148;2023-06-22T10:39:48;26.50;99.90
52435;DHT22;38354;52.892;6.148;2023-06-22T10:42:13;26.60;99.90
52435;DHT22;38354;52.892;6.148;2023-06-22T10:44:39;26.80;99.90
52435;DHT22;38354;52.892;6.148;2023-06-22T10:47:06;26.90;99.90
52435;DHT22;38354;52.892;6.148;2023-06-22T10:49:32;27.00;99.90
52435;DHT22;38354;52.892;6.148;2023-06-22T10:51:57;27.00;99.90
52435;DHT22;38354;52.892;6.148;2023-06-22T10:54:23;27.00;99.90
52435;DHT22;38354;52.892;6.148;2023-06-22T10:56:49;27.00;99.90
52435;DHT22;38354;52.892;6.148;2023-06-22T10:59:14;26.90;99.90
52435;DHT22;38354;52.892;6.148;2023-06-22T11:01:40;26.80;99.90
52435;DHT22;38354;52.892;6.148;2023-06-22T11:04:05;26.80;99.90
52435;DHT22;38354;52.892;6.148;2023-06-22T11:06:31;26.70;99.90
52435;DHT22;38354;52.892;6.148;2023-06-22T11:08:56;26.70;99.90
52435;DHT22;38354;52.892;6.148;2023-06-22T11:11:25;26.60;99.90
52435;DHT22;38354;52.892;6.148;2023-06-22T11:13:50;26.60;99.90
52435;DHT22;38354;52.892;6.148;2023-06-22T11:16:16;26.50;99.90
52435;DHT22;38354;52.892;6.148;2023-06-22T11:18:41;26.40;99.90
52435;DHT22;38354;52.892;6.148;2023-06-22T11:21:07;26.40;99.90
52435;DHT22;38354;52.892;6.148;2023-06-22T11:23:32;26.30;99.90
52435;DHT22;38354;52.892;6.148;2023-06-22T11:25:58;26.20;99.90
52435;DHT22;38354;52.892;6.148;2023-06-22T11:28:23;26.00;99.90
52435;DHT22;38354;52.892;6.148;2023-06-22T11:30:49;26.00;99.90
52435;DHT22;38354;52.892;6.148;2023-06-22T11:33:15;25.90;99.90
52435;DHT22;38354;52.892;6.148;2023-06-22T11:35:40;25.90;99.90
52435;DHT22;38354;52.892;6.148;2023-06-22T11:38:06;25.80;99.90
52435;DHT22;38354;52.892;6.148;2023-06-22T11:40:31;25.90;99.90
52435;DHT22;38354;52.892;6.148;2023-06-22T11:42:57;25.90;99.90
52435;DHT22;38354;52.892;6.148;2023-06-22T11:45:22;25.80;99.90
52435;DHT22;38354;52.892;6.148;2023-06-22T11:47:48;25.80;99.90
52435;DHT22;38354;52.892;6.148;2023-06-22T11:50:13;25.80;99.90
52435;DHT22;38354;52.892;6.148;2023-06-22T11:52:39;25.80;99.90
52435;DHT22;38354;52.892;6.148;2023-06-22T11:55:05;25.80;99.90
52435;DHT22;38354;52.892;6.148;2023-06-22T11:57:38;25.80;99.90
52435;DHT22;38354;52.892;6.148;2023-06-22T12:00:04;25.80;99.90
52435;DHT22;38354;52.892;6.148;2023-06-22T12:02:41;25.80;99.90
52435;DHT22;38354;52.892;6.148;2023-06-22T12:05:07;25.80;99.90
52435;DHT22;38354;52.892;6.148;2023-06-22T12:07:33;25.80;99.90
52435;DHT22;38354;52.892;6.148;2023-06-22T12:09:58;25.80;99.90
52435;DHT22;38354;52.892;6.148;2023-06-22T12:12:24;25.80;99.90
52435;DHT22;38354;52.892;6.148;2023-06-22T12:14:49;25.80;99.90
52435;DHT22;38354;52.892;6.148;2023-06-22T12:17:15;25.80;99.90
52435;DHT22;38354;52.892;6.148;2023-06-22T12:19:40;25.80;99.90
52435;DHT22;38354;52.892;6.148;2023-06-22T12:22:06;25.90;99.90
52435;DHT22;38354;52.892;6.148;2023-06-22T12:24:31;25.90;99.90
52435;DHT22;38354;52.892;6.148;2023-06-22T12:26:57;25.90;99.90
52435;DHT22;38354;52.892;6.148;2023-06-22T12:29:23;26.00;99.90
52435;DHT22;38354;52.892;6.148;2023-06-22T12:31:48;26.00;99.90
52435;DHT22;38354;52.892;6.148;2023-06-22T12:34:14;26.00;99.90
52435;DHT22;38354;52.892;6.148;2023-06-22T12:36:39;26.00;99.90
52435;DHT22;38354;52.892;6.148;2023-06-22T12:39:05;26.10;99.90
52435;DHT22;38354;52.892;6.148;2023-06-22T12:41:31;26.10;99.90
52435;DHT22;38354;52.892;6.148;2023-06-22T12:43:56;26.10;99.90
52435;DHT22;38354;52.892;6.148;2023-06-22T12:46:22;26.10;99.90
52435;DHT22;38354;52.892;6.148;2023-06-22T12:48:47;26.10;99.90
52435;DHT22;38354;52.892;6.148;2023-06-22T12:51:19;26.10;99.90
52435;DHT22;38354;52.892;6.148;2023-06-22T12:53:45;26.00;99.90
52435;DHT22;38354;52.892;6.148;2023-06-22T12:56:10;26.00;99.90
52435;DHT22;38354;52.892;6.148;2023-06-22T12:58:36;25.90;99.90
52435;DHT22;38354;52.892;6.148;2023-06-22T13:01:01;25.80;99.90
52435;DHT22;38354;52.892;6.148;2023-06-22T13:03:27;25.70;99.90
52435;DHT22;38354;52.892;6.148;2023-06-22T13:05:53;25.70;99.90
52435;DHT22;38354;52.892;6.148;2023-06-22T13:08:18;25.60;99.90
52435;DHT22;38354;52.892;6.148;2023-06-22T13:10:44;25.60;99.90
52435;DHT22;38354;52.892;6.148;2023-06-22T13:13:10;25.60;99.90
52435;DHT22;38354;52.892;6.148;2023-06-22T13:15:35;25.50;99.90
52435;DHT22;38354;52.892;6.148;2023-06-22T13:18:01;25.50;99.90
52435;DHT22;38354;52.892;6.148;2023-06-22T13:20:26;25.40;99.90
52435;DHT22;38354;52.892;6.148;2023-06-22T13:22:53;25.40;99.90
52435;DHT22;38354;52.892;6.148;2023-06-22T13:25:19;25.40;99.90
52435;DHT22;38354;52.892;6.148;2023-06-22T13:27:47;25.30;99.90
52435;DHT22;38354;52.892;6.148;2023-06-22T13:30:13;25.20;99.90
52435;DHT22;38354;52.892;6.148;2023-06-22T13:32:38;25.20;99.90
52435;DHT22;38354;52.892;6.148;2023-06-22T13:35:07;25.20;99.90
52435;DHT22;38354;52.892;6.148;2023-06-22T13:37:33;25.10;99.90
52435;DHT22;38354;52.892;6.148;2023-06-22T13:39:58;25.00;99.90
52435;DHT22;38354;52.892;6.148;2023-06-22T13:42:24;25.00;99.90
52435;DHT22;38354;52.892;6.148;2023-06-22T13:44:50;24.90;99.90
52435;DHT22;38354;52.892;6.148;2023-06-22T13:47:20;24.90;99.90
52435;DHT22;38354;52.892;6.148;2023-06-22T13:49:46;24.90;99.90
52435;DHT22;38354;52.892;6.148;2023-06-22T13:52:11;24.80;99.90
52435;DHT22;38354;52.892;6.148;2023-06-22T13:54:38;24.70;99.90
52435;DHT22;38354;52.892;6.148;2023-06-22T13:57:03;24.70;99.90
52435;DHT22;38354;52.892;6.148;2023-06-22T13:59:29;24.70;99.90
52435;DHT22;38354;52.892;6.148;2023-06-22T14:01:55;24.60;99.90
52435;DHT22;38354;52.892;6.148;2023-06-22T14:04:22;24.60;99.90
52435;DHT22;38354;52.892;6.148;2023-06-22T14:06:48;24.60;99.90
52435;DHT22;38354;52.892;6.148;2023-06-22T14:09:14;24.60;99.90
52435;DHT22;38354;52.892;6.148;2023-06-22T14:11:39;24.50;99.90
52435;DHT22;38354;52.892;6.148;2023-06-22T14:14:05;24.50;99.90
52435;DHT22;38354;52.892;6.148;2023-06-22T14:16:30;24.40;99.90
52435;DHT22;38354;52.892;6.148;2023-06-22T14:18:56;24.40;99.90
52435;DHT22;38354;52.892;6.148;2023-06-22T14:21:21;24.40;99.90
52435;DHT22;38354;52.892;6.148;2023-06-22T14:23:47;24.40;99.90
52435;DHT22;38354;52.892;6.148;2023-06-22T14:26:15;24.40;99.90
52435;DHT22;38354;52.892;6.148;2023-06-22T14:28:46;24.40;99.90
52435;DHT22;38354;52.892;6.148;2023-06-22T14:31:15;24.30;99.90
52435;DHT22;38354;52.892;6.148;2023-06-22T14:33:45;24.30;99.90
52435;DHT22;38354;52.892;6.148;2023-06-22T14:36:11;24.20;99.90
52435;DHT22;38354;52.892;6.148;2023-06-22T14:38:37;24.20;99.90
52435;DHT22;38354;52.892;6.148;2023-06-22T14:41:02;24.10;99.90
52435;DHT22;38354;52.892;6.148;2023-06-22T14:43:28;24.10;99.90
52435;DHT22;38354;52.892;6.148;2023-06-22T14:45:53;24.00;99.90
52435;DHT22;38354;52.892;6.148;2023-06-22T14:48:19;23.90;99.90
52435;DHT22;38354;52.892;6.148;2023-06-22T14:50:44;23.90;99.90
52435;DHT22;38354;52.892;6.148;2023-06-22T14:53:10;23.80;99.90
52435;DHT22;38354;52.892;6.148;2023-06-22T14:55:35;23.70;99.90
52435;DHT22;38354;52.892;6.148;2023-06-22T14:58:01;23.60;99.90
52435;DHT22;38354;52.892;6.148;2023-06-22T15:00:26;23.60;99.90
52435;DHT22;38354;52.892;6.148;2023-06-22T15:02:52;23.50;99.90
52435;DHT22;38354;52.892;6.148;2023-06-22T15:05:18;23.40;99.90
52435;DHT22;38354;52.892;6.148;2023-06-22T15:07:43;23.30;99.90
52435;DHT22;38354;52.892;6.148;2023-06-22T15:10:09;23.30;99.90
52435;DHT22;38354;52.892;6.148;2023-06-22T15:12:34;23.20;99.90
52435;DHT22;38354;52.892;6.148;2023-06-22T15:15:00;23.20;99.90
52435;DHT22;38354;52.892;6.148;2023-06-22T15:17:25;23.20;99.90
52435;DHT22;38354;52.892;6.148;2023-06-22T15:19:54;23.10;99.90
52435;DHT22;38354;52.892;6.148;2023-06-22T15:22:20;23.10;99.90
52435;DHT22;38354;52.892;6.148;2023-06-22T15:24:46;23.10;99.90
52435;DHT22;38354;52.892;6.148;2023-06-22T15:27:13;23.00;99.90
52435;DHT22;38354;52.892;6.148;2023-06-22T15:29:39;23.00;99.90
52435;DHT22;38354;52.892;6.148;2023-06-22T15:32:05;23.00;99.90
52435;DHT22;38354;52.892;6.148;2023-06-22T15:34:31;23.00;99.90
52435;DHT22;38354;52.892;6.148;2023-06-22T15:36:57;22.90;99.90
52435;DHT22;38354;52.892;6.148;2023-06-22T15:39:22;22.90;99.90
52435;DHT22;38354;52.892;6.148;2023-06-22T15:41:52;22.80;99.90
52435;DHT22;38354;52.892;6.148;2023-06-22T15:44:20;22.80;99.90
52435;DHT22;38354;52.892;6.148;2023-06-22T15:46:45;22.70;99.90
52435;DHT22;38354;52.892;6.148;2023-06-22T15:49:11;22.70;99.90
52435;DHT22;38354;52.892;6.148;2023-06-22T15:51:36;22.70;99.90
52435;DHT22;38354;52.892;6.148;2023-06-22T15:54:02;22.60;99.90
52435;DHT22;38354;52.892;6.148;2023-06-22T15:56:27;22.60;99.90
52435;DHT22;38354;52.892;6.148;2023-06-22T15:58:54;22.50;99.90
52435;DHT22;38354;52.892;6.148;2023-06-22T16:01:21;22.50;99.90
52435;DHT22;38354;52.892;6.148;2023-06-22T16:03:49;22.40;99.90
52435;DHT22;38354;52.892;6.148;2023-06-22T16:06:15;22.30;99.90
52435;DHT22;38354;52.892;6.148;2023-06-22T16:08:40;22.30;99.90
52435;DHT22;38354;52.892;6.148;2023-06-22T16:11:06;22.10;99.90
52435;DHT22;38354;52.892;6.148;2023-06-22T16:13:32;22.10;99.90
52435;DHT22;38354;52.892;6.148;2023-06-22T16:15:58;22.00;99.90
52435;DHT22;38354;52.892;6.148;2023-06-22T16:18:23;22.00;99.90
52435;DHT22;38354;52.892;6.148;2023-06-22T16:20:49;21.90;99.90
52435;DHT22;38354;52.892;6.148;2023-06-22T16:23:15;21.90;99.90
52435;DHT22;38354;52.892;6.148;2023-06-22T16:25:40;21.80;99.90
52435;DHT22;38354;52.892;6.148;2023-06-22T16:28:06;21.70;99.90
52435;DHT22;38354;52.892;6.148;2023-06-22T16:30:31;21.70;99.90
52435;DHT22;38354;52.892;6.148;2023-06-22T16:32:57;21.60;99.90
52435;DHT22;38354;52.892;6.148;2023-06-22T16:35:24;21.60;99.90
52435;DHT22;38354;52.892;6.148;2023-06-22T16:37:49;21.60;99.90
52435;DHT22;38354;52.892;6.148;2023-06-22T16:40:15;21.50;99.90
52435;DHT22;38354;52.892;6.148;2023-06-22T16:42:46;21.50;99.90
52435;DHT22;38354;52.892;6.148;2023-06-22T16:45:15;21.50;99.90
52435;DHT22;38354;52.892;6.148;2023-06-22T16:47:47;21.40;99.90
52435;DHT22;38354;52.892;6.148;2023-06-22T16:50:13;21.40;99.90
52435;DHT22;38354;52.892;6.148;2023-06-22T16:52:39;21.40;99.90
52435;DHT22;38354;52.892;6.148;2023-06-22T16:55:04;21.30;99.90
52435;DHT22;38354;52.892;6.148;2023-06-22T16:57:30;21.30;99.90
52435;DHT22;38354;52.892;6.148;2023-06-22T16:59:56;21.30;99.90
52435;DHT22;38354;52.892;6.148;2023-06-22T17:02:22;21.30;99.90
52435;DHT22;38354;52.892;6.148;2023-06-22T17:04:48;21.30;99.90
52435;DHT22;38354;52.892;6.148;2023-06-22T17:07:17;21.30;99.90
52435;DHT22;38354;52.892;6.148;2023-06-22T17:09:45;21.30;99.90
52435;DHT22;38354;52.892;6.148;2023-06-22T17:12:11;21.30;99.90
52435;DHT22;38354;52.892;6.148;2023-06-22T17:14:40;21.20;99.90
52435;DHT22;38354;52.892;6.148;2023-06-22T17:17:08;21.20;99.90
52435;DHT22;38354;52.892;6.148;2023-06-22T17:19:34;21.20;99.90
52435;DHT22;38354;52.892;6.148;2023-06-22T17:21:59;21.20;99.90
52435;DHT22;38354;52.892;6.148;2023-06-22T17:24:25;21.10;99.90
52435;DHT22;38354;52.892;6.148;2023-06-22T17:26:54;21.10;99.90
52435;DHT22;38354;52.892;6.148;2023-06-22T17:29:19;21.10;99.90
52435;DHT22;38354;52.892;6.148;2023-06-22T17:31:45;21.00;99.90
52435;DHT22;38354;52.892;6.148;2023-06-22T17:34:16;21.00;99.90
52435;DHT22;38354;52.892;6.148;2023-06-22T17:36:43;21.00;99.90
52435;DHT22;38354;52.892;6.148;2023-06-22T17:39:09;21.00;99.90
52435;DHT22;38354;52.892;6.148;2023-06-22T17:41:36;20.90;99.90
52435;DHT22;38354;52.892;6.148;2023-06-22T17:44:03;20.90;99.90
52435;DHT22;38354;52.892;6.148;2023-06-22T17:46:35;20.90;99.90
52435;DHT22;38354;52.892;6.148;2023-06-22T17:49:01;20.80;99.90
52435;DHT22;38354;52.892;6.148;2023-06-22T17:51:27;20.80;99.90
52435;DHT22;38354;52.892;6.148;2023-06-22T17:53:52;20.80;99.90
52435;DHT22;38354;52.892;6.148;2023-06-22T17:56:18;20.80;99.90
52435;DHT22;38354;52.892;6.148;2023-06-22T17:58:51;20.70;99.90
52435;DHT22;38354;52.892;6.148;2023-06-22T18:01:27;20.80;99.90
52435;DHT22;38354;52.892;6.148;2023-06-22T18:03:52;20.70;99.90
52435;DHT22;38354;52.892;6.148;2023-06-22T18:06:18;20.70;99.90
52435;DHT22;38354;52.892;6.148;2023-06-22T18:08:44;20.60;99.90
52435;DHT22;38354;52.892;6.148;2023-06-22T18:11:12;20.60;99.90
52435;DHT22;38354;52.892;6.148;2023-06-22T18:13:38;20.60;99.90
52435;DHT22;38354;52.892;6.148;2023-06-22T18:16:05;20.60;99.90
52435;DHT22;38354;52.892;6.148;2023-06-22T18:18:31;20.60;99.90
52435;DHT22;38354;52.892;6.148;2023-06-22T18:20:59;20.60;99.90
52435;DHT22;38354;52.892;6.148;2023-06-22T18:23:26;20.60;99.90